createdAt,value
2022-08-17T00:00:43.262Z,1.80
2022-08-17T00:03:17.160Z,1.90
2022-08-17T00:05:47.980Z,2.00
2022-08-17T00:08:56.400Z,1.70
2022-08-17T00:11:38.873Z,2.40
2022-08-17T00:14:15.220Z,2.08
2022-08-17T00:16:56.074Z,2.10
2022-08-17T00:19:27.191Z,1.70
2022-08-17T00:24:48.119Z,1.70
2022-08-17T00:27:16.181Z,1.73
2022-08-17T00:29:46.185Z,1.85
2022-08-17T00:33:12.632Z,2.00
2022-08-17T00:35:09.748Z,2.30
2022-08-17T00:37:37.869Z,2.63
2022-08-17T00:40:08.462Z,2.67
2022-08-17T00:42:36.808Z,3.40
2022-08-17T00:45:07.627Z,3.08
2022-08-17T00:47:35.631Z,2.55
2022-08-17T00:50:05.798Z,2.97
2022-08-17T00:52:40.935Z,2.40
2022-08-17T00:55:10.061Z,2.60
2022-08-17T00:57:44.360Z,2.97
2022-08-17T01:00:28.896Z,3.15
2022-08-17T01:03:09.799Z,3.95
2022-08-17T01:05:42.317Z,3.03
2022-08-17T01:08:15.022Z,3.17
2022-08-17T01:13:44.882Z,2.65
2022-08-17T01:16:25.581Z,2.10
2022-08-17T01:18:59.409Z,2.45
2022-08-17T01:21:58.038Z,2.60
2022-08-17T01:24:28.403Z,2.25
2022-08-17T01:26:57.654Z,1.90
2022-08-17T01:29:26.728Z,1.75
2022-08-17T01:31:58.880Z,1.70
2022-08-17T01:34:42.604Z,1.90
2022-08-17T01:37:15.540Z,2.05
2022-08-17T01:39:55.543Z,1.98
2022-08-17T01:42:34.559Z,1.80
2022-08-17T01:45:10.693Z,2.10
2022-08-17T01:47:40.489Z,2.22
2022-08-17T01:50:13.080Z,1.90
2022-08-17T01:52:42.080Z,1.60
2022-08-17T01:55:11.215Z,1.90
2022-08-17T01:57:39.301Z,2.38
2022-08-17T02:00:11.542Z,2.38
2022-08-17T02:02:40.322Z,2.42
2022-08-17T02:05:09.395Z,2.15
2022-08-17T02:07:59.356Z,2.40
2022-08-17T02:10:25.597Z,2.20
2022-08-17T02:13:05.309Z,2.30
2022-08-17T02:15:35.470Z,2.58
2022-08-17T02:18:06.036Z,2.00
2022-08-17T02:20:41.894Z,1.80
2022-08-17T02:23:14.577Z,2.75
2022-08-17T02:25:48.515Z,2.15
2022-08-17T02:28:20.154Z,2.20
2022-08-17T02:31:00.282Z,2.33
2022-08-17T02:33:42.816Z,2.17
2022-08-17T02:36:14.570Z,2.30
2022-08-17T02:38:44.471Z,2.10
2022-08-17T02:41:13.565Z,2.53
2022-08-17T02:43:41.625Z,2.43
2022-08-17T02:46:25.871Z,2.10
2022-08-17T02:48:53.967Z,2.08
2022-08-17T02:51:22.160Z,2.03
2022-08-17T02:53:50.530Z,1.90
2022-08-17T02:56:18.590Z,1.95
2022-08-17T02:58:47.000Z,2.10
2022-08-17T03:01:15.460Z,2.50
2022-08-17T03:03:43.749Z,1.98
2022-08-17T03:06:11.902Z,1.90
2022-08-17T03:08:41.401Z,2.10
2022-08-17T03:11:09.495Z,2.03
2022-08-17T03:13:38.209Z,1.80
2022-08-17T03:16:07.504Z,3.00
2022-08-17T03:18:35.636Z,2.92
2022-08-17T03:21:04.960Z,1.98
2022-08-17T03:23:33.304Z,2.15
2022-08-17T03:26:01.790Z,2.42
2022-08-17T03:28:30.352Z,2.10
2022-08-17T03:31:00.087Z,2.20
2022-08-17T03:33:28.084Z,2.63
2022-08-17T03:35:56.138Z,2.20
2022-08-17T03:38:26.554Z,2.35
2022-08-17T03:40:58.585Z,2.25
2022-08-17T03:43:30.682Z,2.67
2022-08-17T03:46:28.386Z,3.50
2022-08-17T03:49:28.190Z,2.00
2022-08-17T03:52:16.001Z,2.35
2022-08-17T03:55:05.574Z,2.80
2022-08-17T03:57:33.704Z,2.65
2022-08-17T04:00:01.831Z,3.60
2022-08-17T04:02:41.435Z,2.45
2022-08-17T04:05:10.090Z,2.90
2022-08-17T04:07:38.169Z,2.60
2022-08-17T04:10:07.700Z,2.45
2022-08-17T04:12:50.216Z,2.40
2022-08-17T04:15:21.600Z,3.28
2022-08-17T04:17:49.809Z,2.78
2022-08-17T04:20:20.694Z,2.20
2022-08-17T04:23:10.181Z,2.60
2022-08-17T04:25:42.641Z,2.42
2022-08-17T04:28:16.310Z,2.60
2022-08-17T04:30:47.846Z,2.40
2022-08-17T04:33:19.766Z,2.35
2022-08-17T04:35:51.133Z,2.60
2022-08-17T04:38:24.991Z,2.45
2022-08-17T04:41:12.368Z,2.97
2022-08-17T04:43:43.371Z,2.40
2022-08-17T04:46:17.925Z,2.92
2022-08-17T04:48:49.909Z,2.38
2022-08-17T04:51:32.167Z,2.47
2022-08-17T04:54:05.061Z,2.50
2022-08-17T04:56:33.939Z,2.67
2022-08-17T04:59:18.951Z,2.72
2022-08-17T05:01:49.459Z,3.00
2022-08-17T05:04:34.105Z,3.00
2022-08-17T05:07:05.467Z,2.90
2022-08-17T05:09:33.623Z,2.13
2022-08-17T05:12:03.106Z,2.08
2022-08-17T05:14:33.561Z,2.00
2022-08-17T05:17:04.626Z,1.95
2022-08-17T05:19:37.912Z,2.05
2022-08-17T05:22:07.204Z,2.63
2022-08-17T05:24:39.043Z,1.98
2022-08-17T05:27:16.764Z,2.20
2022-08-17T05:29:47.342Z,1.92
2022-08-17T05:32:39.054Z,2.17
2022-08-17T05:35:06.155Z,1.60
2022-08-17T05:37:34.152Z,1.50
2022-08-17T05:40:02.243Z,1.85
2022-08-17T05:42:33.132Z,1.60
2022-08-17T05:45:01.224Z,2.20
2022-08-17T05:47:31.162Z,1.85
2022-08-17T05:52:48.655Z,1.70
2022-08-17T05:55:54.822Z,2.13
2022-08-17T05:58:56.699Z,1.77
2022-08-17T06:01:34.247Z,2.30
2022-08-17T06:04:40.342Z,2.05
2022-08-17T06:07:11.453Z,8.05
2022-08-17T06:09:55.863Z,2.08
2022-08-17T06:12:55.646Z,5.07
2022-08-17T06:15:48.081Z,1.60
2022-08-17T06:18:20.867Z,1.70
2022-08-17T06:20:57.517Z,1.63
2022-08-17T06:23:47.256Z,1.60
2022-08-17T06:26:38.432Z,1.80
2022-08-17T06:29:41.248Z,1.73
2022-08-17T06:32:12.806Z,1.98
2022-08-17T06:34:44.450Z,2.00
2022-08-17T06:37:31.880Z,1.70
2022-08-17T06:40:36.712Z,1.73
2022-08-17T06:43:33.591Z,1.98
2022-08-17T06:46:24.643Z,1.45
2022-08-17T06:49:13.893Z,1.65
2022-08-17T06:51:53.184Z,1.75
2022-08-17T06:54:37.775Z,1.33
2022-08-17T06:57:25.725Z,1.42
2022-08-17T06:59:59.822Z,1.25
2022-08-17T07:03:02.109Z,1.33
2022-08-17T07:05:42.574Z,1.20
2022-08-17T07:08:35.378Z,1.63
2022-08-17T07:11:09.186Z,1.23
2022-08-17T07:13:52.194Z,1.40
2022-08-17T07:16:33.860Z,1.40
2022-08-17T07:19:04.917Z,1.88
2022-08-17T07:21:55.685Z,1.23
2022-08-17T07:24:48.558Z,1.60
2022-08-17T07:27:26.210Z,1.45
2022-08-17T07:30:22.865Z,1.23
2022-08-17T07:33:14.266Z,1.40
2022-08-17T07:35:44.657Z,1.40
2022-08-17T07:38:30.952Z,1.40
2022-08-17T07:41:21.062Z,1.40
2022-08-17T07:43:53.896Z,1.38
2022-08-17T07:46:43.154Z,1.38
2022-08-17T07:49:12.757Z,1.67
2022-08-17T07:51:56.548Z,1.60
2022-08-17T07:54:30.995Z,1.40
2022-08-17T07:57:04.607Z,1.67
2022-08-17T07:59:35.656Z,1.60
2022-08-17T08:02:21.647Z,1.60
2022-08-17T08:05:10.099Z,1.83
2022-08-17T08:07:56.159Z,1.80
2022-08-17T08:10:45.081Z,1.90
2022-08-17T08:13:22.782Z,1.80
2022-08-17T08:15:55.915Z,1.92
2022-08-17T08:18:47.610Z,2.20
2022-08-17T08:21:32.346Z,2.28
2022-08-17T08:24:00.964Z,1.95
2022-08-17T08:26:47.093Z,2.17
2022-08-17T08:29:29.974Z,2.00
2022-08-17T08:32:38.390Z,2.20
2022-08-17T08:35:19.356Z,1.98
2022-08-17T08:38:15.090Z,1.90
2022-08-17T08:40:57.081Z,2.50
2022-08-17T08:43:37.862Z,2.47
2022-08-17T08:46:14.580Z,2.10
2022-08-17T08:49:12.697Z,2.20
2022-08-17T08:51:57.234Z,2.35
2022-08-17T08:54:40.002Z,2.22
2022-08-17T08:57:33.810Z,2.40
2022-08-17T09:00:17.206Z,2.08
2022-08-17T09:03:36.725Z,2.08
2022-08-17T09:06:37.329Z,2.20
2022-08-17T09:09:38.855Z,2.58
2022-08-17T09:12:22.296Z,2.38
2022-08-17T09:15:03.096Z,2.53
2022-08-17T09:17:47.788Z,2.63
2022-08-17T09:20:27.428Z,3.03
2022-08-17T09:23:07.887Z,2.58
2022-08-17T09:26:10.949Z,2.53
2022-08-17T09:28:43.565Z,2.83
2022-08-17T09:31:18.532Z,2.35
2022-08-17T09:33:49.080Z,2.60
2022-08-17T09:36:30.691Z,2.42
2022-08-17T09:39:04.381Z,2.30
2022-08-17T09:42:03.508Z,2.10
2022-08-17T09:44:40.491Z,2.35
2022-08-17T09:47:13.910Z,2.25
2022-08-17T09:49:51.914Z,2.38
2022-08-17T09:52:26.173Z,2.97
2022-08-17T09:54:56.884Z,2.15
2022-08-17T09:57:30.733Z,2.30
2022-08-17T10:00:17.541Z,2.50
2022-08-17T10:03:20.410Z,2.17
2022-08-17T10:06:03.053Z,2.58
2022-08-17T10:08:55.010Z,2.38
2022-08-17T10:11:52.167Z,2.72
2022-08-17T10:14:37.970Z,2.80
2022-08-17T10:17:30.447Z,2.45
2022-08-17T10:20:30.751Z,2.72
2022-08-17T10:23:36.879Z,2.80
2022-08-17T10:26:27.789Z,2.92
2022-08-17T10:29:29.011Z,3.03
2022-08-17T10:32:04.784Z,3.15
2022-08-17T10:35:09.017Z,2.90
2022-08-17T10:37:54.427Z,3.50
2022-08-17T10:40:51.488Z,2.95
2022-08-17T10:43:29.942Z,2.90
2022-08-17T10:46:29.928Z,3.33
2022-08-17T10:49:17.810Z,3.10
2022-08-17T10:51:50.935Z,3.22
2022-08-17T10:54:38.890Z,2.75
2022-08-17T10:57:36.872Z,2.65
2022-08-17T11:00:16.566Z,3.30
2022-08-17T11:02:57.665Z,3.20
2022-08-17T11:05:49.346Z,2.90
2022-08-17T11:08:26.283Z,2.83
2022-08-17T11:11:16.398Z,2.80
2022-08-17T11:13:53.394Z,2.60
2022-08-17T11:16:27.091Z,2.70
2022-08-17T11:19:09.412Z,2.75
2022-08-17T11:22:00.681Z,2.53
2022-08-17T11:24:52.362Z,2.72
2022-08-17T11:27:28.032Z,1.95
2022-08-17T11:30:03.172Z,2.72
2022-08-17T11:32:47.577Z,1.98
2022-08-17T11:35:22.983Z,2.20
2022-08-17T11:38:00.210Z,2.67
2022-08-17T11:41:02.234Z,2.20
2022-08-17T11:43:48.428Z,2.40
2022-08-17T11:46:22.629Z,2.17
2022-08-17T11:49:12.061Z,2.03
2022-08-17T11:52:13.282Z,2.10
2022-08-17T11:54:45.841Z,2.10
2022-08-17T11:57:33.020Z,2.20
2022-08-17T12:00:11.538Z,2.30
2022-08-17T12:02:48.532Z,2.50
2022-08-17T12:05:23.872Z,2.85
2022-08-17T12:08:21.973Z,2.25
2022-08-17T12:10:54.111Z,3.13
2022-08-17T12:13:30.479Z,2.28
2022-08-17T12:16:06.182Z,2.55
2022-08-17T12:18:38.112Z,2.25
2022-08-17T12:21:27.042Z,3.28
2022-08-17T12:24:14.311Z,6.65
2022-08-17T12:26:44.899Z,7.28
2022-08-17T12:29:39.073Z,5.35
2022-08-17T12:32:34.393Z,8.57
2022-08-17T12:35:30.257Z,7.28
2022-08-17T12:37:59.125Z,7.20
2022-08-17T12:40:32.365Z,6.65
2022-08-17T12:43:04.557Z,5.53
2022-08-17T12:45:37.909Z,7.30
2022-08-17T12:48:24.644Z,7.18
2022-08-17T12:50:53.338Z,6.10
2022-08-17T12:53:25.701Z,7.18
2022-08-17T12:55:55.826Z,7.40
2022-08-17T12:58:29.581Z,7.13
2022-08-17T13:01:09.478Z,7.80
2022-08-17T13:06:10.884Z,8.95
2022-08-17T13:08:44.769Z,8.73
2022-08-17T13:11:16.760Z,7.88
2022-08-17T13:13:47.728Z,7.70
2022-08-17T13:16:18.883Z,8.70
2022-08-17T13:19:09.040Z,8.60
2022-08-17T13:21:39.443Z,8.25
2022-08-17T13:32:46.261Z,15.20
2022-08-17T13:35:39.583Z,10.45
2022-08-17T13:38:13.929Z,7.10
2022-08-17T13:40:55.546Z,7.00
2022-08-17T13:43:47.232Z,8.00
2022-08-17T13:46:27.179Z,8.90
2022-08-17T13:49:03.327Z,8.45
2022-08-17T13:51:36.303Z,9.95
2022-08-17T13:54:07.679Z,11.38
2022-08-17T13:56:41.402Z,12.25
2022-08-17T13:59:53.807Z,11.68
2022-08-17T14:02:17.942Z,14.07
2022-08-17T14:04:47.961Z,14.95
2022-08-17T14:10:16.648Z,14.05
2022-08-17T14:12:46.174Z,12.95
2022-08-17T14:18:02.105Z,13.35
2022-08-17T14:20:30.183Z,13.20
2022-08-17T14:25:43.884Z,11.10
2022-08-17T14:28:11.930Z,10.63
2022-08-17T14:30:41.890Z,11.80
2022-08-17T14:35:38.336Z,14.75
2022-08-17T14:38:06.603Z,15.85
2022-08-17T14:40:36.009Z,13.15
2022-08-17T14:43:22.531Z,13.00
2022-08-17T14:45:50.706Z,12.80
2022-08-17T14:48:18.673Z,17.95
2022-08-17T14:50:46.818Z,32.92
2022-08-17T14:53:17.244Z,27.02
2022-08-17T14:55:47.152Z,27.75
2022-08-17T14:58:17.049Z,18.77
2022-08-17T15:00:45.214Z,15.32
2022-08-17T15:06:00.152Z,13.57
2022-08-17T15:08:29.189Z,10.93
2022-08-17T15:10:59.629Z,10.93
2022-08-17T15:13:30.205Z,8.30
2022-08-17T15:16:00.555Z,8.77
2022-08-17T15:18:29.101Z,9.00
2022-08-17T15:21:01.782Z,8.13
2022-08-17T15:23:29.887Z,8.13
2022-08-17T15:25:57.935Z,8.30
2022-08-17T15:28:26.821Z,8.63
2022-08-17T15:30:55.102Z,8.05
2022-08-17T15:33:32.225Z,8.43
2022-08-17T15:36:04.237Z,9.95
2022-08-17T15:38:34.871Z,11.15
2022-08-17T15:41:04.601Z,13.00
2022-08-17T15:43:33.476Z,11.68
2022-08-17T15:46:32.980Z,11.27
2022-08-17T15:49:03.516Z,10.20
2022-08-17T15:51:34.361Z,12.02
2022-08-17T15:54:19.120Z,14.15
2022-08-17T15:56:51.139Z,10.73
2022-08-17T15:59:20.105Z,8.57
2022-08-17T16:03:01.640Z,8.07
2022-08-17T16:04:39.172Z,7.43
2022-08-17T16:07:12.209Z,6.40
2022-08-17T16:09:40.233Z,6.45
2022-08-17T16:12:20.284Z,6.97
2022-08-17T16:14:50.838Z,7.88
2022-08-17T16:17:38.918Z,7.47
2022-08-17T16:20:07.544Z,11.43
2022-08-17T16:22:41.599Z,10.38
2022-08-17T16:25:14.749Z,8.55
2022-08-17T16:27:43.444Z,8.23
2022-08-17T16:30:17.082Z,8.13
2022-08-17T16:32:48.123Z,7.88
2022-08-17T16:35:18.963Z,7.32
2022-08-17T16:37:47.561Z,7.70
2022-08-17T16:40:17.718Z,6.20
2022-08-17T16:42:49.109Z,6.75
2022-08-17T16:45:20.244Z,6.07
2022-08-17T16:47:50.543Z,6.55
2022-08-17T16:50:21.624Z,4.28
2022-08-17T16:52:51.693Z,3.72
2022-08-17T16:55:22.661Z,3.78
2022-08-17T16:57:50.959Z,3.88
2022-08-17T17:03:21.035Z,3.60
2022-08-17T17:06:11.304Z,3.53
2022-08-17T17:08:49.543Z,3.30
2022-08-17T17:11:45.417Z,2.95
2022-08-17T17:14:29.104Z,2.80
2022-08-17T17:17:11.120Z,2.70
2022-08-17T17:19:46.272Z,3.13
2022-08-17T17:22:26.065Z,2.55
2022-08-17T17:25:16.163Z,2.35
2022-08-17T17:27:51.430Z,2.70
2022-08-17T17:30:45.415Z,2.70
2022-08-17T17:33:18.850Z,3.10
2022-08-17T17:36:00.333Z,2.72
2022-08-17T17:38:50.114Z,3.17
2022-08-17T17:41:44.605Z,2.60
2022-08-17T17:44:19.811Z,2.90
2022-08-17T17:46:54.685Z,2.90
2022-08-17T17:49:24.457Z,2.60
2022-08-17T17:52:24.915Z,2.40
2022-08-17T17:55:01.955Z,2.67
2022-08-17T17:57:52.353Z,2.33
2022-08-17T18:00:27.445Z,2.70
2022-08-17T18:03:10.341Z,2.35
2022-08-17T18:05:56.728Z,2.75
2022-08-17T18:08:43.979Z,2.88
2022-08-17T18:11:34.915Z,3.25
2022-08-17T18:14:19.211Z,2.83
2022-08-17T18:16:54.050Z,3.10
2022-08-17T18:19:26.172Z,3.25
2022-08-17T18:22:16.940Z,2.85
2022-08-17T18:24:47.925Z,3.08
2022-08-17T18:27:35.200Z,2.60
2022-08-17T18:30:15.182Z,2.50
2022-08-17T18:35:15.148Z,2.65
2022-08-17T18:37:46.225Z,2.63
2022-08-17T18:40:22.821Z,2.85
2022-08-17T18:43:11.504Z,2.67
2022-08-17T18:45:51.862Z,2.75
2022-08-17T18:48:25.956Z,2.42
2022-08-17T18:50:57.257Z,2.58
2022-08-17T18:53:41.627Z,3.20
2022-08-17T18:56:31.992Z,2.63
2022-08-17T18:59:17.483Z,3.10
2022-08-17T19:02:38.666Z,3.15
2022-08-17T19:05:14.734Z,2.83
2022-08-17T19:07:48.813Z,2.88
2022-08-17T19:10:30.402Z,2.72
2022-08-17T19:13:13.853Z,2.70
2022-08-17T19:16:12.049Z,3.20
2022-08-17T19:19:00.190Z,3.05
2022-08-17T19:21:40.014Z,3.03
2022-08-17T19:24:23.433Z,2.42
2022-08-17T19:27:15.137Z,2.67
2022-08-17T19:29:51.478Z,2.75
2022-08-17T19:32:30.816Z,3.00
2022-08-17T19:34:59.122Z,2.60
2022-08-17T19:37:59.034Z,3.50
2022-08-17T19:43:28.663Z,2.65
2022-08-17T19:46:08.313Z,2.97
2022-08-17T19:51:18.532Z,2.42
2022-08-17T19:54:06.660Z,2.50
2022-08-17T19:57:20.462Z,2.65
2022-08-17T20:00:24.637Z,2.60
2022-08-17T20:03:16.979Z,2.70
2022-08-17T20:06:12.041Z,2.78
2022-08-17T20:09:05.310Z,2.60
2022-08-17T20:11:46.286Z,2.75
2022-08-17T20:14:18.358Z,2.92
2022-08-17T20:16:46.390Z,2.97
2022-08-17T20:19:29.988Z,2.83
2022-08-17T20:22:30.550Z,2.85
2022-08-17T20:25:31.745Z,2.88
2022-08-17T20:28:15.969Z,2.80
2022-08-17T20:30:45.472Z,2.70
2022-08-17T20:33:30.917Z,2.88
2022-08-17T20:36:19.533Z,3.03
2022-08-17T20:38:54.828Z,3.38
2022-08-17T20:41:25.931Z,2.90
2022-08-17T20:44:00.125Z,2.97
2022-08-17T20:47:02.228Z,3.03
2022-08-17T20:49:51.682Z,3.30
2022-08-17T20:52:42.114Z,3.05
2022-08-17T20:55:31.301Z,3.00
2022-08-17T20:58:23.662Z,3.15
2022-08-17T21:00:58.285Z,3.67
2022-08-17T21:03:47.555Z,4.32
2022-08-17T21:06:22.478Z,3.47
2022-08-17T21:08:59.443Z,3.42
2022-08-17T21:12:02.509Z,4.25
2022-08-17T21:14:29.420Z,3.35
2022-08-17T21:17:07.522Z,4.72
2022-08-17T21:20:00.627Z,4.05
2022-08-17T21:22:36.514Z,4.95
2022-08-17T21:25:33.286Z,4.60
2022-08-17T21:28:14.116Z,4.60
2022-08-17T21:30:44.491Z,3.70
2022-08-17T21:33:22.805Z,3.33
2022-08-17T21:36:17.437Z,2.80
2022-08-17T21:39:09.813Z,3.13
2022-08-17T21:41:58.314Z,3.60
2022-08-17T21:44:37.805Z,3.72
2022-08-17T21:47:25.266Z,4.28
2022-08-17T21:49:54.932Z,3.20
2022-08-17T21:52:25.090Z,5.03
2022-08-17T21:54:57.174Z,3.53
2022-08-17T21:57:32.611Z,3.55
2022-08-17T22:00:17.149Z,3.47
2022-08-17T22:02:59.568Z,3.72
2022-08-17T22:05:38.443Z,3.22
2022-08-17T22:08:16.677Z,2.97
2022-08-17T22:10:49.616Z,3.22
2022-08-17T22:13:22.622Z,3.20
2022-08-17T22:16:29.049Z,3.20
2022-08-17T22:19:00.710Z,3.25
2022-08-17T22:21:28.770Z,2.80
2022-08-17T22:24:22.657Z,3.13
2022-08-17T22:27:02.267Z,3.35
2022-08-17T22:29:57.540Z,3.58
2022-08-17T22:32:43.697Z,3.15
2022-08-17T22:35:26.414Z,3.60
2022-08-17T22:37:54.403Z,3.42
2022-08-17T22:40:36.696Z,3.60
2022-08-17T22:43:04.831Z,3.60
2022-08-17T22:45:34.262Z,3.30
2022-08-17T22:48:04.048Z,3.75
2022-08-17T22:50:33.821Z,3.75
2022-08-17T22:53:37.806Z,3.70
2022-08-17T22:56:26.060Z,3.35
2022-08-17T22:59:17.109Z,3.08
2022-08-17T23:02:05.993Z,3.45
2022-08-17T23:04:39.324Z,2.90
2022-08-17T23:07:07.547Z,3.00
2022-08-17T23:09:36.479Z,2.72
2022-08-17T23:12:09.652Z,3.00
2022-08-17T23:14:41.537Z,2.85
2022-08-17T23:17:09.613Z,3.40
2022-08-17T23:19:38.587Z,3.40
2022-08-17T23:22:09.867Z,3.20
2022-08-17T23:24:45.019Z,2.83
2022-08-17T23:27:13.589Z,3.00
2022-08-17T23:29:42.888Z,3.35
2022-08-17T23:32:15.712Z,3.88
2022-08-17T23:34:45.617Z,3.15
2022-08-17T23:39:43.188Z,2.92
2022-08-17T23:44:42.293Z,2.88
2022-08-17T23:47:12.783Z,2.78
2022-08-17T23:49:41.975Z,3.08
2022-08-17T23:52:15.038Z,3.10
2022-08-17T23:54:48.222Z,3.13
2022-08-17T23:57:20.438Z,3.00
